METAR Data
IDs: Format: Raw Decoded Include TAF

Data at: 0747 UTC 03 Aug 2021

ESMS 030720Z 35004KT 310V040 9999 BKN035 15/13 Q1012